MMZO/ZLO METAR and TAF weather

Enter ICAO airport designator
Station Type Date Time Source
MMZO METAR 2024/04/17 16:40 UTC NOAA

MMZO 171640Z 00000KT 6SM SKC 24/22 A2989 RMK HZY


Station Type Date Time Source
MMZO Decoded METAR 2024/04/17 16:40 UTC NOAA

Manzanillo International , Mexico (MMZO) 19-09N 104-34W
Apr 17, 2024 - 12:40 PM EDT / 2024.04.17 1640 UTC
Wind: Calm:0
Visibility: 6 mile(s):0
Sky conditions: clear
Temperature: 75 F (24 C)
Dew Point: 71 F (22 C)
Relative Humidity: 88%
Pressure (altimeter): 29.89 in. Hg (1012 hPa)
ob: MMZO 171640Z 00000KT 6SM SKC 24/22 A2989 RMK HZY
cycle: 16

Station Type Date Time Source
MMZO TAF 2024/04/17 18:54 UTC NOAA